Detall de PIREP

Printer-friendly versionPDF version

[2010/01/27 07:53:00]
Flight IATA:CT2111
Pilot Number:041
Company ICAO:CAT
Aircraft Type:F50/A
PAX:30
Departing Airport: LEST
Destination Airport: LEVC
Alternate Airport:LEAL
Online: VATSIM
Route:FORNO A33 ZMR A33 DISKO A33 INDEG A33 MAGIN A33 HORTA A33 CJN A33 PRADO A33 CENTA
Flight Level:FL180
No Slew and time accel
No pause
Crash detect
Detect pilot in Cockpit between each 30 and 45 minutes
07:53 Zero fuel Weight: 35102 Lbs, Fuel Weight: 4988 Lbs
07:53 VATSIM:LEST 270730Z 03008KT 010V070 9999 FEW030 BKN042 04/03 Q1026 NOSIG
07:53 VATSIM:LEVC 270730Z VRB02KT 9999 FEW040 BKN058 04/00 Q1018 NOSIG
07:53 VOICE CATALONIAN
07:56 Parking Brakes off
08:04 Take-off
08:04 Take off Weight: 39977 Lbs
08:04 Wind: 045º @ 007 Knots Heading: 346º
08:04 POS N42º 53´ 51´´ W008º 24´ 56´´
08:04 Flaps:1 at 127 Knots
08:05 Flaps:0 at 118 Knots
08:05 Gear Up: 125 Knots
08:17 TOC
08:
17 Fuel Weight: 4368 Lb
08:19 Wind:047º@051 Knots Heading: 110º Ground Speed: 233 Knots Altitude 18336 ft
08:34 Wind:045º@046 Knots Heading: 114º Ground Speed: 250 Knots Altitude 18208 ft
08:49 Wind:027º@041 Knots Heading: 106º Ground Speed: 256 Knots Altitude 18205 ft
09:04 Wind:025º@030 Knots Heading: 109º Ground Speed: 259 Knots Altitude 18110 ft
09:19 Wind:013º@034 Knots Heading: 109º Ground Speed: 265 Knots Altitude 18123 ft
09:20 TOD
09:20 Fuel Weight: 2467 Lb
09:34 Wind:027º@038 Knots Heading: 109º Ground Speed: 232 Knots Altitude 7946 ft
09:44 Flaps:1 at 167 Knots
09:44 Flaps:2 at 137 Knots
09:47 Flaps:3 at 141 Knots
09:48 Flaps:4 at 128 Knots
09:48 Gear Down: 121 Knots
09:48 Flaps:5 at 118 Knots
09:49 Wind:019º@013 Knots Heading: 108º Ground Speed: 117 Knots Altitude 3458 ft
09:49 Flaps:6 at 104 Knots
09:53 TouchDown:Rate -387 ft/min Speed: 88 Knots

09:53 VATSIM:LEVC 270930Z 04005KT 010V080 9999 FEW040 SCT060 07/M00 Q1020 NOSIG
09:53 Land
09:53 Wind:073º@001 Knots
09:53 Heading: 116º
09:53 Flight Duration: 01:49
09:53 Landing Weight: 36950 Lbs
09:53 POS N39º 29´ 32´´ W000º 29´ 23´´
09:57 Parking brakes on
09:57 Block to Block Duration: 02:01
09:57 Final Fuel: 1814 Lbls
09:57 Spent Fuel: 3174 Lbls
09:57 Flight Length: 415 NM
09:57 TOD Land Length: 109 NM

Exportar CSV

Powered by Drupal - Modified by Danger4k